Terminal Aerodrome Forecast
Issued by NWS

Home | Current Version | Previous Version | Graphics & Text | Print | Product List | Glossary On
Versions: 1 2 3 4 5 6 7 8 9 10 11 12 13 14 15 16 17 18 19 20 21
000
FTUS43 KMPX 200758 AAA
TAFAXN
TAF AMD
KAXN 200758Z 2008/2106 15013KT P6SM VCTS SCT045CB OVC070
      TEMPO 2008/2012 5SM SHRA BKN045
     FM201200 16013KT P6SM VCSH OVC015
     FM201400 17011KT 4SM -SHRA BR VCTS BKN010CB
     FM201800 21013G20KT P6SM BKN020
     FM210000 28011KT P6SM SCT020 BKN080=

USA.gov is the U.S. government's official web portal to all federal, state and local government web resources and services.